sensor_id;sensor_type;location;lat;lon;timestamp;temperature;humidity
23769;DHT22;12064;50.890;5.424;2024-01-10T00:06:22;14.20;99.90
23769;DHT22;12064;50.890;5.424;2024-01-10T00:15:13;14.10;99.90
23769;DHT22;12064;50.890;5.424;2024-01-10T00:24:04;14.20;99.90
23769;DHT22;12064;50.890;5.424;2024-01-10T00:32:55;14.10;99.90
23769;DHT22;12064;50.890;5.424;2024-01-10T00:41:46;14.10;99.90
23769;DHT22;12064;50.890;5.424;2024-01-10T00:50:36;14.10;99.90
23769;DHT22;12064;50.890;5.424;2024-01-10T00:59:27;14.10;99.90
23769;DHT22;12064;50.890;5.424;2024-01-10T01:08:18;14.10;99.90
23769;DHT22;12064;50.890;5.424;2024-01-10T01:17:08;14.00;99.90
23769;DHT22;12064;50.890;5.424;2024-01-10T01:25:59;14.00;99.90
23769;DHT22;12064;50.890;5.424;2024-01-10T01:34:50;14.00;99.90
23769;DHT22;12064;50.890;5.424;2024-01-10T01:43:41;14.00;99.90
23769;DHT22;12064;50.890;5.424;2024-01-10T01:52:31;14.00;99.90
23769;DHT22;12064;50.890;5.424;2024-01-10T02:01:23;14.00;99.90
23769;DHT22;12064;50.890;5.424;2024-01-10T02:10:14;14.00;99.90
23769;DHT22;12064;50.890;5.424;2024-01-10T02:19:21;14.00;99.90
23769;DHT22;12064;50.890;5.424;2024-01-10T02:28:12;14.00;99.90
23769;DHT22;12064;50.890;5.424;2024-01-10T02:37:03;13.90;99.90
23769;DHT22;12064;50.890;5.424;2024-01-10T02:45:53;13.90;99.90
23769;DHT22;12064;50.890;5.424;2024-01-10T02:54:45;13.90;99.90
23769;DHT22;12064;50.890;5.424;2024-01-10T03:03:35;13.90;99.90
23769;DHT22;12064;50.890;5.424;2024-01-10T03:12:27;13.90;99.90
23769;DHT22;12064;50.890;5.424;2024-01-10T03:21:18;13.80;99.90
23769;DHT22;12064;50.890;5.424;2024-01-10T03:30:15;13.90;99.90
23769;DHT22;12064;50.890;5.424;2024-01-10T03:39:08;13.90;99.90
23769;DHT22;12064;50.890;5.424;2024-01-10T03:47:59;13.90;99.90
23769;DHT22;12064;50.890;5.424;2024-01-10T03:56:50;13.80;99.90
23769;DHT22;12064;50.890;5.424;2024-01-10T04:05:41;13.80;99.90
23769;DHT22;12064;50.890;5.424;2024-01-10T04:14:32;13.80;99.90
23769;DHT22;12064;50.890;5.424;2024-01-10T04:23:22;13.80;99.90
23769;DHT22;12064;50.890;5.424;2024-01-10T04:32:13;13.80;99.90
23769;DHT22;12064;50.890;5.424;2024-01-10T04:41:04;13.80;99.90
23769;DHT22;12064;50.890;5.424;2024-01-10T04:49:54;13.80;99.90
23769;DHT22;12064;50.890;5.424;2024-01-10T04:58:45;13.80;99.90
23769;DHT22;12064;50.890;5.424;2024-01-10T05:07:36;13.80;99.90
23769;DHT22;12064;50.890;5.424;2024-01-10T05:16:27;13.80;99.90
23769;DHT22;12064;50.890;5.424;2024-01-10T05:25:18;13.80;99.90
23769;DHT22;12064;50.890;5.424;2024-01-10T05:34:08;13.80;99.90
23769;DHT22;12064;50.890;5.424;2024-01-10T05:42:59;13.90;99.90
23769;DHT22;12064;50.890;5.424;2024-01-10T05:51:50;13.90;99.90
23769;DHT22;12064;50.890;5.424;2024-01-10T06:00:40;13.80;99.90
23769;DHT22;12064;50.890;5.424;2024-01-10T06:09:31;13.80;99.90
23769;DHT22;12064;50.890;5.424;2024-01-10T06:18:21;13.80;99.90
23769;DHT22;12064;50.890;5.424;2024-01-10T06:27:12;13.80;99.90
23769;DHT22;12064;50.890;5.424;2024-01-10T06:36:03;13.90;99.90
23769;DHT22;12064;50.890;5.424;2024-01-10T06:44:53;13.80;99.90
23769;DHT22;12064;50.890;5.424;2024-01-10T06:53:44;13.80;99.90
23769;DHT22;12064;50.890;5.424;2024-01-10T07:02:35;13.80;99.90
23769;DHT22;12064;50.890;5.424;2024-01-10T07:11:26;13.80;99.90
23769;DHT22;12064;50.890;5.424;2024-01-10T07:20:18;13.80;99.90
23769;DHT22;12064;50.890;5.424;2024-01-10T07:29:09;13.70;99.90
23769;DHT22;12064;50.890;5.424;2024-01-10T07:37:59;13.80;99.90
23769;DHT22;12064;50.890;5.424;2024-01-10T07:46:50;13.70;99.90
23769;DHT22;12064;50.890;5.424;2024-01-10T07:55:45;13.70;99.90
23769;DHT22;12064;50.890;5.424;2024-01-10T08:04:36;13.70;99.90
23769;DHT22;12064;50.890;5.424;2024-01-10T08:13:26;13.70;99.90
23769;DHT22;12064;50.890;5.424;2024-01-10T08:22:17;13.70;99.90
23769;DHT22;12064;50.890;5.424;2024-01-10T08:31:10;13.70;99.90
23769;DHT22;12064;50.890;5.424;2024-01-10T08:40:00;13.70;99.90
23769;DHT22;12064;50.890;5.424;2024-01-10T08:48:56;13.60;99.90
23769;DHT22;12064;50.890;5.424;2024-01-10T08:57:47;13.70;99.90
23769;DHT22;12064;50.890;5.424;2024-01-10T09:06:38;13.70;99.90
23769;DHT22;12064;50.890;5.424;2024-01-10T09:15:28;13.60;99.90
23769;DHT22;12064;50.890;5.424;2024-01-10T09:24:19;13.70;99.90
23769;DHT22;12064;50.890;5.424;2024-01-10T09:33:09;13.60;99.90
23769;DHT22;12064;50.890;5.424;2024-01-10T09:42:00;13.70;99.90
23769;DHT22;12064;50.890;5.424;2024-01-10T09:50:52;13.70;99.90
23769;DHT22;12064;50.890;5.424;2024-01-10T09:59:43;13.70;99.90
23769;DHT22;12064;50.890;5.424;2024-01-10T10:08:37;13.70;99.90
23769;DHT22;12064;50.890;5.424;2024-01-10T10:17:28;13.70;99.90
23769;DHT22;12064;50.890;5.424;2024-01-10T10:26:19;13.70;99.90
23769;DHT22;12064;50.890;5.424;2024-01-10T10:35:10;13.70;99.90
23769;DHT22;12064;50.890;5.424;2024-01-10T10:44:02;13.70;99.90
23769;DHT22;12064;50.890;5.424;2024-01-10T10:52:55;13.80;99.90
23769;DHT22;12064;50.890;5.424;2024-01-10T11:01:49;13.70;99.90
23769;DHT22;12064;50.890;5.424;2024-01-10T11:10:41;13.80;99.90
23769;DHT22;12064;50.890;5.424;2024-01-10T11:29:09;13.90;99.90
23769;DHT22;12064;50.890;5.424;2024-01-10T11:38:00;13.90;99.90
23769;DHT22;12064;50.890;5.424;2024-01-10T11:46:53;13.90;99.90
23769;DHT22;12064;50.890;5.424;2024-01-10T11:55:50;13.90;99.90
23769;DHT22;12064;50.890;5.424;2024-01-10T12:04:42;14.00;99.90
23769;DHT22;12064;50.890;5.424;2024-01-10T12:13:35;14.10;99.90
23769;DHT22;12064;50.890;5.424;2024-01-10T12:22:26;14.10;99.90
23769;DHT22;12064;50.890;5.424;2024-01-10T12:31:17;14.10;99.90
23769;DHT22;12064;50.890;5.424;2024-01-10T12:40:08;14.20;99.80
23769;DHT22;12064;50.890;5.424;2024-01-10T12:49:03;14.20;99.70
23769;DHT22;12064;50.890;5.424;2024-01-10T12:57:55;14.20;99.60
23769;DHT22;12064;50.890;5.424;2024-01-10T13:06:49;14.20;99.70
23769;DHT22;12064;50.890;5.424;2024-01-10T13:15:41;14.30;99.00
23769;DHT22;12064;50.890;5.424;2024-01-10T13:24:32;14.40;99.00
23769;DHT22;12064;50.890;5.424;2024-01-10T13:33:23;14.40;99.10
23769;DHT22;12064;50.890;5.424;2024-01-10T13:42:16;14.40;98.90
23769;DHT22;12064;50.890;5.424;2024-01-10T13:51:06;14.40;98.90
23769;DHT22;12064;50.890;5.424;2024-01-10T13:59:57;14.40;98.80
23769;DHT22;12064;50.890;5.424;2024-01-10T14:08:47;14.50;98.90
23769;DHT22;12064;50.890;5.424;2024-01-10T14:17:40;14.50;99.10
23769;DHT22;12064;50.890;5.424;2024-01-10T14:26:31;14.50;98.90
23769;DHT22;12064;50.890;5.424;2024-01-10T14:35:22;14.60;99.90
23769;DHT22;12064;50.890;5.424;2024-01-10T14:44:13;14.70;99.90
23769;DHT22;12064;50.890;5.424;2024-01-10T14:53:03;14.70;99.90
23769;DHT22;12064;50.890;5.424;2024-01-10T15:01:54;14.60;98.70
23769;DHT22;12064;50.890;5.424;2024-01-10T15:10:46;14.60;97.40
23769;DHT22;12064;50.890;5.424;2024-01-10T15:19:36;14.60;96.50
23769;DHT22;12064;50.890;5.424;2024-01-10T15:28:27;14.60;95.80
23769;DHT22;12064;50.890;5.424;2024-01-10T15:37:18;14.60;95.20
23769;DHT22;12064;50.890;5.424;2024-01-10T15:46:16;14.60;94.70
23769;DHT22;12064;50.890;5.424;2024-01-10T15:55:07;14.60;94.20
23769;DHT22;12064;50.890;5.424;2024-01-10T16:03:59;14.50;93.70
23769;DHT22;12064;50.890;5.424;2024-01-10T16:12:50;14.60;93.30
23769;DHT22;12064;50.890;5.424;2024-01-10T16:21:40;14.60;93.60
23769;DHT22;12064;50.890;5.424;2024-01-10T16:30:31;14.60;94.40
23769;DHT22;12064;50.890;5.424;2024-01-10T16:39:22;14.60;94.80
23769;DHT22;12064;50.890;5.424;2024-01-10T16:48:12;14.60;95.40
23769;DHT22;12064;50.890;5.424;2024-01-10T16:57:03;14.60;95.80
23769;DHT22;12064;50.890;5.424;2024-01-10T17:05:54;14.50;96.30
23769;DHT22;12064;50.890;5.424;2024-01-10T17:14:44;14.50;96.50
23769;DHT22;12064;50.890;5.424;2024-01-10T17:23:35;14.50;96.70
23769;DHT22;12064;50.890;5.424;2024-01-10T17:32:26;14.50;96.70
23769;DHT22;12064;50.890;5.424;2024-01-10T17:41:16;14.50;96.90
23769;DHT22;12064;50.890;5.424;2024-01-10T17:50:07;14.50;97.10
23769;DHT22;12064;50.890;5.424;2024-01-10T17:58:58;14.50;97.10
23769;DHT22;12064;50.890;5.424;2024-01-10T18:07:49;14.50;97.20
23769;DHT22;12064;50.890;5.424;2024-01-10T18:16:41;14.50;97.30
23769;DHT22;12064;50.890;5.424;2024-01-10T18:25:32;14.50;97.40
23769;DHT22;12064;50.890;5.424;2024-01-10T18:34:23;14.50;97.50
23769;DHT22;12064;50.890;5.424;2024-01-10T18:43:14;14.50;97.50
23769;DHT22;12064;50.890;5.424;2024-01-10T18:52:05;14.50;97.60
23769;DHT22;12064;50.890;5.424;2024-01-10T19:00:56;14.50;97.90
23769;DHT22;12064;50.890;5.424;2024-01-10T19:09:46;14.50;98.00
23769;DHT22;12064;50.890;5.424;2024-01-10T19:18:37;14.50;98.10
23769;DHT22;12064;50.890;5.424;2024-01-10T19:27:28;14.40;98.10
23769;DHT22;12064;50.890;5.424;2024-01-10T19:36:18;14.40;98.20
23769;DHT22;12064;50.890;5.424;2024-01-10T19:45:10;14.40;98.40
23769;DHT22;12064;50.890;5.424;2024-01-10T19:54:02;14.40;98.60
23769;DHT22;12064;50.890;5.424;2024-01-10T20:02:52;14.40;98.50
23769;DHT22;12064;50.890;5.424;2024-01-10T20:11:43;14.50;98.60
23769;DHT22;12064;50.890;5.424;2024-01-10T20:20:34;14.40;98.60
23769;DHT22;12064;50.890;5.424;2024-01-10T20:29:24;14.40;98.80
23769;DHT22;12064;50.890;5.424;2024-01-10T20:38:15;14.40;98.90
23769;DHT22;12064;50.890;5.424;2024-01-10T20:47:08;14.40;98.90
23769;DHT22;12064;50.890;5.424;2024-01-10T20:55:59;14.50;99.00
23769;DHT22;12064;50.890;5.424;2024-01-10T21:04:49;14.40;99.00
23769;DHT22;12064;50.890;5.424;2024-01-10T21:13:40;14.40;99.10
23769;DHT22;12064;50.890;5.424;2024-01-10T21:22:31;14.40;99.10
23769;DHT22;12064;50.890;5.424;2024-01-10T21:31:21;14.40;99.20
23769;DHT22;12064;50.890;5.424;2024-01-10T21:40:12;14.40;99.40
23769;DHT22;12064;50.890;5.424;2024-01-10T21:49:03;14.40;99.50
23769;DHT22;12064;50.890;5.424;2024-01-10T21:57:53;14.40;99.60
23769;DHT22;12064;50.890;5.424;2024-01-10T22:06:44;14.30;99.60
23769;DHT22;12064;50.890;5.424;2024-01-10T22:15:35;14.40;99.40
23769;DHT22;12064;50.890;5.424;2024-01-10T22:24:28;14.40;99.90
23769;DHT22;12064;50.890;5.424;2024-01-10T22:33:18;14.30;99.90
23769;DHT22;12064;50.890;5.424;2024-01-10T22:42:09;14.30;99.90
23769;DHT22;12064;50.890;5.424;2024-01-10T22:51:00;14.30;99.90
23769;DHT22;12064;50.890;5.424;2024-01-10T22:59:51;14.30;99.90
23769;DHT22;12064;50.890;5.424;2024-01-10T23:08:41;14.30;99.90
23769;DHT22;12064;50.890;5.424;2024-01-10T23:17:32;14.20;99.90
23769;DHT22;12064;50.890;5.424;2024-01-10T23:26:24;14.30;99.90
23769;DHT22;12064;50.890;5.424;2024-01-10T23:35:14;14.30;99.90
23769;DHT22;12064;50.890;5.424;2024-01-10T23:44:05;14.20;99.90
23769;DHT22;12064;50.890;5.424;2024-01-10T23:52:56;14.20;99.90
